This is the latest recevied weather packets stored in our database for station/object OE3FJB-25. If no packets are shown the sender has not sent any weather packets the latest 10 day(s).
| Time | Temp. | Humidity | Pressure | Rain* | Wind** | Luminosity | Snow |
|---|---|---|---|---|---|---|---|
| 1777353767 | 5° C | 99% | 1022.2 hPa | - | - | - | - |
| 1777353169 | 5° C | 99% | 1022.1 hPa | - | - | - | - |
| 1777352570 | 5° C | 99% | 1022 hPa | - | - | - | - |
| 1777351971 | 5° C | 99% | 1022 hPa | - | - | - | - |
| 1777350774 | 4.44° C | 99% | 1021.7 hPa | - | - | - | - |
| 1777350175 | 4.44° C | 99% | 1021.7 hPa | - | - | - | - |
| 1777349576 | 4.44° C | 99% | 1021.6 hPa | - | - | - | - |
| 1777348977 | 4.44° C | 99% | 1021.7 hPa | - | - | - | - |
| 1777348379 | 4.44° C | 99% | 1021.7 hPa | - | - | - | - |
| 1777347778 | 4.44° C | 99% | 1021.7 hPa | - | - | - | - |
| 1777347178 | 4.44° C | 99% | 1021.8 hPa | - | - | - | - |
| 1777346579 | 4.44° C | 99% | 1021.8 hPa | - | - | - | - |
| 1777345980 | 4.44° C | 99% | 1021.7 hPa | - | - | - | - |
| 1777344783 | 4.44° C | 99% | 1021.9 hPa | - | - | - | - |
| 1777344184 | 4.44° C | 99% | 1022 hPa | - | - | - | - |
| 1777343585 | 5° C | 99% | 1022.1 hPa | - | - | - | - |
| 1777342986 | 5.56° C | 98% | 1022.1 hPa | - | - | - | - |
| 1777341789 | 5.56° C | 93% | 1022.1 hPa | - | - | - | - |
| 1777340592 | 6.11° C | 86% | 1022.1 hPa | - | - | - | - |
| 1777339993 | 6.11° C | 83% | 1022.2 hPa | - | - | - | - |
| 1777338197 | 7.22° C | 71% | 1022.1 hPa | - | - | - | - |
| 1777337598 | 7.22° C | 69% | 1022.2 hPa | - | - | - | - |
| 1777336401 | 6.67° C | 72% | 1022.3 hPa | - | - | - | - |
| 1777334605 | 7.78° C | 67% | 1022.4 hPa | - | - | - | - |
| 1777328019 | 8.33° C | 67% | 1022.7 hPa | - | - | - | - |
* Rain since midnight (hover to see other rain measurements)
** Current wind speed in m/s (hover to see current wind gust speed)